Data for 06/15/2019

Time Sea-Level Adjusted Pressure Absolute Pressure Temperature Relative Humidity Dew Point   
(mb) (inHg) (mb) (inHg) (C) (F) (%) (C) (F)
00:05 1018 30.06 847 25.01 14.9 58.8 60 7.4 45.3
00:10 1018 30.06 847 25.01 15 58.9 60 7.5 45.4
00:15 1018 30.06 847 25.01 14.9 58.9 61 7.6 45.7
00:20 1018 30.06 847 25.01 14.9 58.8 62 7.6 45.7
00:25 1018 30.06 847 25.01 14.7 58.5 63 7.8 46
00:30 1018 30.06 847 25.01 14.6 58.3 64 7.9 46.2
00:35 1018 30.06 847 25.01 14.6 58.3 64 8 46.4
00:40 1018 30.06 847 25.01 14.6 58.2 65 8.1 46.5
00:45 1018 30.06 847 25.01 14.5 58.1 65 8.1 46.5
00:50 1018 30.06 847 25.01 14.3 57.7 66 8 46.4
00:55 1018 30.06 847 25.01 14 57.3 67 8 46.4
01:00 1018 30.06 847 25.01 13.9 57 68 8.1 46.5
01:05 1018 30.06 847 25.01 13.7 56.6 68 7.9 46.2
01:10 1018 30.06 847 25.01 13.5 56.3 69 7.9 46.2
01:15 1018 30.06 847 25.01 13.4 56.1 69 7.8 46.1
01:20 1018 30.06 847 25.01 13.3 55.9 69 7.8 46.1
01:25 1018 30.06 847 25.01 13.3 55.9 69 7.8 46
01:30 1018 30.06 847 25.01 13.3 55.9 69 7.7 45.8
01:35 1018 30.06 847 25.01 13.2 55.8 69 7.7 45.9
01:40 1018 30.06 847 25.01 13.2 55.7 69 7.7 45.8
01:45 1018 30.06 847 25.01 13.1 55.5 69 7.6 45.6
01:50 1018 30.06 847 25.01 13 55.4 69 7.6 45.7
01:55 1018 30.06 847 25.01 12.9 55.2 70 7.5 45.6
02:00 1018 30.06 848 25.04 12.9 55.2 69 7.5 45.5
02:05 1018 30.06 848 25.04 12.9 55.1 70 7.5 45.5
02:10 1018 30.06 848 25.04 12.7 54.9 71 7.6 45.6
02:15 1018 30.06 848 25.04 12.6 54.7 71 7.6 45.6
02:20 1018 30.06 848 25.04 12.6 54.6 71 7.5 45.5
02:25 1018 30.06 848 25.04 12.5 54.6 71 7.5 45.5
02:30 1018 30.06 848 25.04 12.5 54.6 71 7.5 45.4
02:35 1018 30.06 848 25.04 12.6 54.6 71 7.4 45.4
02:40 1018 30.06 848 25.04 12.6 54.6 71 7.6 45.6
02:45 1018 30.06 848 25.04 12.5 54.5 72 7.5 45.5
02:50 1018 30.06 848 25.04 12.4 54.3 72 7.6 45.7
02:55 1019 30.09 848 25.04 12.1 53.9 74 7.6 45.8
03:00 1019 30.09 848 25.04 11.8 53.2 75 7.5 45.5
03:05 1019 30.09 848 25.04 11.6 53 76 7.5 45.5
03:10 1019 30.09 848 25.04 11.5 52.8 76 7.4 45.3
03:15 1019 30.09 848 25.04 11.4 52.6 76 7.4 45.2
03:20 1019 30.09 848 25.04 11.5 52.7 75 7.3 45.1
03:25 1019 30.09 848 25.04 11.6 52.8 75 7.3 45.2
03:30 1019 30.09 848 25.04 11.7 53.1 74 7.3 45.1
03:35 1019 30.09 848 25.04 11.7 53 74 7.2 45
03:40 1019 30.09 848 25.04 11.6 52.9 71 6.5 43.7
03:45 1019 30.09 848 25.04 11.7 53 71 6.6 43.8
03:50 1019 30.09 848 25.04 11.5 52.8 74 7.2 44.9
03:55 1019 30.09 848 25.04 11.8 53.2 73 7.1 44.7
04:00 1019 30.09 848 25.04 11.6 52.9 71 6.6 44
04:05 1019 30.09 848 25.04 11.4 52.5 72 6.5 43.7
04:10 1019 30.09 848 25.04 11.2 52.2 74 6.7 44
04:15 1019 30.09 848 25.04 11 51.8 74 6.6 44
04:20 1019 30.09 848 25.04 10.8 51.4 75 6.6 43.9
04:25 1019 30.09 848 25.04 10.7 51.3 76 6.7 44
04:30 1019 30.09 848 25.04 10.7 51.2 76 6.6 43.8
04:35 1019 30.09 848 25.04 10.7 51.3 76 6.6 43.9
04:40 1019 30.09 848 25.04 10.7 51.2 76 6.6 43.9
04:45 1019 30.09 848 25.04 10.6 51.1 77 6.7 44.1
04:50 1019 30.09 848 25.04 10.4 50.7 78 6.7 44
04:55 1019 30.09 848 25.04 10.1 50.2 79 6.7 44.1
05:00 1019 30.09 848 25.04 10.1 50.2 79 6.6 43.9
05:05 1019 30.09 848 25.04 10 50 79 6.5 43.8
05:10 1019 30.09 848 25.04 9.9 49.8 79 6.5 43.7
05:15 1019 30.09 848 25.04 9.9 49.7 79 6.4 43.6
05:20 1019 30.09 848 25.04 9.8 49.7 79 6.3 43.4
05:25 1019 30.09 848 25.04 9.8 49.6 79 6.3 43.3
05:30 1019 30.09 848 25.04 9.8 49.7 78 6.2 43.2
05:35 1019 30.09 848 25.04 9.9 49.9 78 6.3 43.3
05:40 1019 30.09 848 25.04 10 49.9 78 6.2 43.2
05:45 1019 30.09 848 25.04 9.9 49.8 77 6.1 43
05:50 1019 30.09 848 25.04 9.8 49.6 78 6.1 42.9
05:55 1019 30.09 848 25.04 9.6 49.2 78 5.9 42.7
06:00 1019 30.09 848 25.04 9.5 49.1 77 5.7 42.2
06:05 1019 30.09 848 25.04 9.8 49.7 76 5.8 42.4
06:10 1019 30.09 848 25.04 9.9 49.8 77 6.1 43
06:15 1019 30.09 848 25.04 10.2 50.3 76 6.2 43.1
06:20 1019 30.09 848 25.04 10.3 50.5 75 6 42.9
06:25 1019 30.09 848 25.04 10.4 50.6 75 6.1 42.9
06:30 1019 30.09 848 25.04 10.4 50.7 75 6.2 43.2
06:35 1019 30.09 848 25.04 10.4 50.8 75 6.3 43.3
06:40 1019 30.09 848 25.04 10.5 51 75 6.3 43.3
06:45 1019 30.09 848 25.04 10.7 51.3 75 6.4 43.6
06:50 1019 30.09 848 25.04 11 51.9 73 6.4 43.6
06:55 1019 30.09 848 25.04 11.2 52.2 73 6.5 43.8
07:00 1019 30.09 848 25.04 11.4 52.4 73 6.6 43.9
07:05 1019 30.09 849 25.07 11.4 52.4 72 6.5 43.6
07:10 1019 30.09 849 25.07 11.7 53 71 6.6 44
07:15 1019 30.09 849 25.07 11.8 53.2 70 6.6 43.9
07:20 1019 30.09 849 25.07 12 53.6 69 6.6 44
07:25 1019 30.09 849 25.07 12.5 54.4 68 6.7 44
07:30 1019 30.09 849 25.07 12.8 55.1 68 7 44.7
07:35 1019 30.09 849 25.07 12.7 54.9 68 7 44.7
07:40 1019 30.09 849 25.07 12.9 55.1 66 6.7 44.1
07:45 1019 30.09 849 25.07 13.7 56.6 62 6.5 43.8
07:50 1019 30.09 849 25.07 14.4 58 58 6.4 43.5
07:55 1019 30.09 849 25.07 14.5 58.1 58 6.4 43.4
08:00 1019 30.09 849 25.07 14.6 58.2 59 6.7 44.1
08:05 1019 30.09 849 25.07 14.7 58.5 57 6.4 43.5
08:10 1019 30.09 849 25.07 14.6 58.3 59 6.8 44.2
08:15 1019 30.09 849 25.07 14.3 57.7 59 6.4 43.5
08:20 1019 30.09 849 25.07 14.6 58.2 59 6.7 44.1
08:25 1019 30.09 849 25.07 14.7 58.5 58 6.6 43.9
08:30 1019 30.09 849 25.07 15.1 59.2 57 6.8 44.2
08:35 1019 30.09 849 25.07 15.2 59.3 56 6.6 44
08:40 1019 30.09 849 25.07 15.3 59.6 55 6.5 43.8
08:45 1019 30.09 849 25.07 15.4 59.6 57 6.9 44.4
08:50 1019 30.09 849 25.07 15.5 59.9 55 6.7 44
08:55 1019 30.09 849 25.07 15.7 60.3 55 6.8 44.3
09:00 1019 30.09 849 25.07 16.3 61.3 53 6.8 44.2
09:05 1019 30.09 848 25.04 16.7 62 53 7 44.6
09:10 1019 30.09 849 25.07 17.1 62.8 51 7 44.6
09:15 1019 30.09 849 25.07 17.6 63.7 50 7.1 44.7
09:20 1019 30.09 849 25.07 17.6 63.7 50 7.1 44.7
09:25 1019 30.09 848 25.04 17.4 63.4 52 7.5 45.5
09:30 1019 30.09 848 25.04 17.9 64.3 48 6.9 44.5
09:35 1019 30.09 848 25.04 18.3 64.9 48 7.2 45
09:40 1019 30.09 848 25.04 18 64.4 50 7.7 45.8
09:45 1019 30.09 848 25.04 18 64.4 50 7.5 45.6
09:50 1019 30.09 848 25.04 18.1 64.6 49 7.3 45.1
09:55 1019 30.09 848 25.04 18 64.4 49 7.3 45.1
10:00 1019 30.09 848 25.04 18.6 65.5 48 7.6 45.6
10:05 1019 30.09 848 25.04 18.7 65.6 48 7.5 45.6
10:10 1019 30.09 848 25.04 19 66.1 45 7 44.6
10:15 1019 30.09 848 25.04 19.4 66.9 47 7.8 46.1
10:20 1019 30.09 848 25.04 19.1 66.4 48 7.8 46.1
10:25 1019 30.09 848 25.04 18.7 65.6 48 7.7 45.9
10:30 1019 30.09 848 25.04 18.7 65.6 49 7.7 45.9
10:35 1019 30.09 848 25.04 19.4 67 46 7.5 45.5
10:40 1019 30.09 848 25.04 19.2 66.6 48 8 46.4
10:45 1019 30.09 848 25.04 18.5 65.2 48 7.5 45.4
10:50 1019 30.09 848 25.04 19 66.3 49 8.1 46.5
10:55 1019 30.09 848 25.04 19.5 67.2 46 7.9 46.2
11:00 1019 30.09 848 25.04 20 67.9 44 7.5 45.5
11:05 1019 30.09 848 25.04 19.9 67.9 44 7.4 45.3
11:10 1019 30.09 848 25.04 20.1 68.1 43 7.4 45.3
11:15 1019 30.09 848 25.04 19.2 66.6 47 7.8 46
11:20 1019 30.09 848 25.04 19.3 66.7 47 7.9 46.2
11:25 1019 30.09 848 25.04 20.1 68.1 44 7.7 45.9
11:30 1019 30.09 848 25.04 20.5 68.8 43 7.6 45.6
11:35 1019 30.09 848 25.04 20.4 68.6 43 7.5 45.4
11:40 1019 30.09 848 25.04 20.6 69 43 7.8 46.1
11:45 1019 30.09 848 25.04 20.8 69.5 41 7.2 44.9
11:50 1019 30.09 848 25.04 20.9 69.5 42 7.6 45.6
11:55 1019 30.09 848 25.04 21 69.8 41 7.4 45.4
12:00 1019 30.09 848 25.04 21.2 70.2 41 7.7 45.9
12:05 1019 30.09 848 25.04 21.7 71.1 40 7.5 45.6
12:10 1019 30.09 848 25.04 22 71.6 40 7.9 46.2
12:15 1019 30.09 848 25.04 22 71.5 39 7.7 45.9
12:20 1019 30.09 848 25.04 22.3 72.1 37 7.3 45.1
12:25 1019 30.09 848 25.04 21.8 71.3 41 8.3 47
12:30 1019 30.09 848 25.04 21.8 71.2 38 7.1 44.7
12:35 1019 30.09 848 25.04 22.2 72 37 7 44.6
12:40 1019 30.09 848 25.04 22.5 72.5 34 5.9 42.6
12:45 1019 30.09 848 25.04 22.5 72.5 32 5.2 41.4
12:50 1019 30.09 848 25.04 22.9 73.1 31 5.2 41.4
12:55 1019 30.09 848 25.04 23.2 73.7 29 4.3 39.7
13:00 1019 30.09 848 25.04 23.3 73.9 29 4.5 40.1
13:05 1019 30.09 848 25.04 23.1 73.6 29 4.2 39.6
13:10 1019 30.09 848 25.04 23.5 74.2 29 4.9 40.8
13:15 1019 30.09 848 25.04 23 73.4 28 3.9 39
13:20 1019 30.09 848 25.04 23.5 74.3 29 4.7 40.5
13:25 1018 30.06 848 25.04 23.6 74.5 29 4.7 40.5
13:30 1018 30.06 848 25.04 23.9 75.1 26 3.2 37.8
13:35 1018 30.06 848 25.04 23.1 73.7 26 2.6 36.6
13:40 1018 30.06 848 25.04 23.5 74.4 24 2 35.7
13:45 1018 30.06 848 25.04 23.9 75 25 2.8 37.1
13:50 1018 30.06 848 25.04 22.9 73.2 26 2.7 36.8
13:55 1018 30.06 847 25.01 23.2 73.8 23 1.3 34.4
14:00 1018 30.06 847 25.01 23.9 75.1 22 1.1 33.9
14:05 1018 30.06 847 25.01 22.9 73.2 25 1.9 35.4
14:10 1018 30.06 847 25.01 22.5 72.4 25 1.5 34.6
14:15 1018 30.06 847 25.01 23.3 73.9 22 0.3 32.6
14:20 1018 30.06 847 25.01 23.7 74.6 23 1.4 34.5
14:25 1018 30.06 847 25.01 24 75.1 21 0.3 32.5
14:30 1018 30.06 847 25.01 23.5 74.4 21 0.4 32.8
14:35 1018 30.06 847 25.01 23.7 74.6 20 -0.2 31.7
14:40 1018 30.06 847 25.01 23.5 74.4 22 0.8 33.5
14:45 1018 30.06 847 25.01 23.3 73.9 20 -0.5 31.1
14:50 1018 30.06 847 25.01 23 73.3 23 0.7 33.2
14:55 1018 30.06 847 25.01 22.7 72.9 21 -0.7 30.8
15:00 1018 30.06 847 25.01 22.8 73 20 -0.9 30.4
15:05 1018 30.06 847 25.01 23.7 74.6 20 -0.6 30.9
15:10 1018 30.06 847 25.01 23.3 73.9 20 -0.4 31.3
15:15 1018 30.06 847 25.01 22.7 72.9 22 0.2 32.4
15:20 1018 30.06 847 25.01 22.3 72.1 23 0.3 32.6
15:25 1018 30.06 847 25.01 22.9 73.2 22 0.1 32.2
15:30 1018 30.06 847 25.01 23.7 74.7 19 -1.1 30
15:35 1018 30.06 847 25.01 23.1 73.5 19 -1.7 29
15:40 1017 30.03 847 25.01 23.4 74.2 18 -1.9 28.5
15:45 1017 30.03 847 25.01 24.5 76 17 -2.1 28.2
15:50 1017 30.03 847 25.01 24.9 76.9 14 -3.7 25.3
15:55 1017 30.03 847 25.01 23.6 74.5 18 -1.9 28.6
16:00 1017 30.03 846 24.98 23.5 74.3 17 -2.9 26.8
16:05 1017 30.03 846 24.98 24.6 76.2 15 -3.6 25.5
16:10 1017 30.03 846 24.98 25.2 77.3 17 -1.2 29.8
16:15 1017 30.03 846 24.98 24.5 76.2 16 -3.1 26.5
16:20 1017 30.03 846 24.98 24.9 76.7 15 -3.5 25.7
16:25 1017 30.03 846 24.98 24.7 76.4 14 -3.9 25
16:30 1017 30.03 846 24.98 24.5 76.1 15 -3.3 26.1
16:35 1017 30.03 846 24.98 23.6 74.5 15 -4.1 24.6
16:40 1017 30.03 846 24.98 23.7 74.6 17 -3 26.6
16:45 1017 30.03 846 24.98 23.8 74.8 17 -2.5 27.5
16:50 1017 30.03 846 24.98 24.8 76.7 16 -2.3 27.8
16:55 1017 30.03 846 24.98 25 76.9 17 -1.5 29.4
17:00 1017 30.03 846 24.98 25.6 78.1 17 -1.3 29.6
17:05 1017 30.03 846 24.98 25.9 78.7 16 -1.4 29.4
17:10 1017 30.03 846 24.98 25.1 77.2 18 -0.6 31
17:15 1017 30.03 846 24.98 24.6 76.3 17 -1.6 29
17:20 1017 30.03 846 24.98 24.7 76.4 18 -1.2 29.9
17:25 1017 30.03 846 24.98 25 77.1 17 -1.4 29.5
17:30 1017 30.03 846 24.98 25.7 78.2 17 -1.2 29.8
17:35 1017 30.03 846 24.98 24.8 76.7 17 -1.3 29.7
17:40 1017 30.03 846 24.98 25 76.9 17 -1.5 29.4
17:45 1017 30.03 846 24.98 25.4 77.8 16 -1.7 29
17:50 1017 30.03 846 24.98 25.5 77.9 17 -0.9 30.3
17:55 1017 30.03 846 24.98 25.2 77.4 17 -1.3 29.6
18:00 1017 30.03 846 24.98 25.3 77.5 17 -1 30.1
18:05 1017 30.03 846 24.98 25.6 78.1 15 -2.3 27.8
18:10 1017 30.03 846 24.98 25.3 77.6 18 -0.2 31.7
18:15 1017 30.03 846 24.98 24.2 75.5 20 -0 32
18:20 1017 30.03 846 24.98 24 75.1 18 -1.7 29
18:25 1017 30.03 846 24.98 25 76.9 17 -1.5 29.3
18:30 1017 30.03 846 24.98 24.4 76 18 -0.9 30.5
18:35 1017 30.03 846 24.98 24.5 76 18 -1.1 30
18:40 1017 30.03 846 24.98 25.2 77.3 18 -0.3 31.4
18:45 1017 30.03 846 24.98 25 77 20 0.4 32.8
18:50 1017 30.03 846 24.98 24.6 76.3 19 0.1 32.1
18:55 1017 30.03 846 24.98 24.6 76.2 19 -0 31.9
19:00 1017 30.03 846 24.98 24.7 76.4 19 -0.6 30.9
19:05 1017 30.03 846 24.98 24.7 76.5 19 0 32.1
19:10 1017 30.03 846 24.98 24.9 76.9 19 0.2 32.4
19:15 1017 30.03 846 24.98 24.8 76.7 19 0.1 32.2
19:20 1017 30.03 846 24.98 23.2 73.7 34 6.7 44
19:25 1017 30.03 846 24.98 21.9 71.4 40 7.8 46
19:30 1017 30.03 846 24.98 20.9 69.6 43 8.1 46.6
19:35 1017 30.03 846 24.98 20.5 68.8 45 8.1 46.7
19:40 1017 30.03 846 24.98 20.2 68.3 44 7.6 45.7
19:45 1017 30.03 846 24.98 20 67.9 44 7.6 45.7
19:50 1017 30.03 846 24.98 19.8 67.6 45 7.8 46.1
19:55 1017 30.03 846 24.98 19.7 67.5 45 7.5 45.6
20:00 1017 30.03 846 24.98 19.7 67.4 46 7.8 46
20:05 1017 30.03 846 24.98 19.5 67.1 46 7.6 45.6
20:10 1017 30.03 847 25.01 19.3 66.8 46 7.5 45.6
20:15 1017 30.03 847 25.01 19.2 66.6 47 7.7 45.8
20:20 1017 30.03 847 25.01 19.1 66.4 48 7.8 46.1
20:25 1018 30.06 847 25.01 19 66.1 47 7.5 45.5
20:30 1018 30.06 847 25.01 18.8 65.9 47 7.5 45.5
20:35 1018 30.06 847 25.01 18.7 65.7 47 7.4 45.4
20:40 1018 30.06 847 25.01 18.6 65.5 48 7.4 45.3
20:45 1018 30.06 847 25.01 18.5 65.3 48 7.4 45.3
20:50 1018 30.06 847 25.01 18.4 65.1 48 7.4 45.3
20:55 1018 30.06 847 25.01 18.3 64.9 49 7.4 45.4